createdAt,value
2022-12-11T00:02:09.753Z,91061.72
2022-12-11T00:04:39.062Z,91056.31
2022-12-11T00:07:08.426Z,91037.88
2022-12-11T00:09:39.532Z,91041.78
2022-12-11T00:12:09.549Z,91018.09
2022-12-11T00:14:38.914Z,91025.75
2022-12-11T00:17:08.201Z,91020.38
2022-12-11T00:19:37.628Z,91014.16
2022-12-11T00:22:06.990Z,91016.78
2022-12-11T00:24:36.534Z,91026.09
2022-12-11T00:27:08.145Z,91021.81
2022-12-11T00:29:37.581Z,91028.53
2022-12-11T00:32:07.299Z,91029.34
2022-12-11T00:34:36.831Z,91014.47
2022-12-11T00:37:06.279Z,90993.22
2022-12-11T00:39:35.539Z,90999.25
2022-12-11T00:42:06.655Z,91004.16
2022-12-11T00:44:36.232Z,90980.28
2022-12-11T00:47:06.235Z,90976.84
2022-12-11T00:50:57.189Z,90957.41
2022-12-11T00:53:26.809Z,90944.47
2022-12-11T00:55:56.303Z,90943.03
2022-12-11T00:58:25.939Z,90941.22
2022-12-11T01:00:55.547Z,90929.16
2022-12-11T01:03:25.020Z,90942.03
2022-12-11T01:05:56.872Z,90942.22
2022-12-11T01:08:26.268Z,90937.00
2022-12-11T01:11:05.350Z,90932.41
2022-12-11T01:13:35.352Z,90937.47
2022-12-11T01:16:10.627Z,90931.25
2022-12-11T01:18:40.362Z,90937.09
2022-12-11T01:21:15.168Z,90932.69
2022-12-11T01:23:45.209Z,90940.38
2022-12-11T01:26:16.909Z,90920.28
2022-12-11T01:28:47.170Z,90922.38
2022-12-11T01:31:18.633Z,90926.63
2022-12-11T01:33:48.085Z,90913.38
2022-12-11T01:36:22.169Z,90920.06
2022-12-11T01:38:53.771Z,90910.25
2022-12-11T01:41:23.713Z,90903.84
2022-12-11T01:44:06.885Z,90894.03
2022-12-11T01:46:38.027Z,90896.28
2022-12-11T01:49:11.832Z,90877.19
2022-12-11T01:51:47.364Z,90883.88
2022-12-11T01:54:21.102Z,90885.50
2022-12-11T01:56:54.930Z,90860.16
2022-12-11T01:59:28.888Z,90864.22
2022-12-11T02:02:05.334Z,90859.16
2022-12-11T02:04:38.212Z,90840.22
2022-12-11T02:07:08.906Z,90831.38
2022-12-11T02:09:40.680Z,90819.28
2022-12-11T02:12:20.908Z,90836.59
2022-12-11T02:15:01.314Z,90812.44
2022-12-11T02:17:40.421Z,90816.19
2022-12-11T02:20:17.680Z,90818.00
2022-12-11T02:23:18.470Z,90810.16
2022-12-11T02:26:04.202Z,90819.63
2022-12-11T02:28:39.131Z,90809.34
2022-12-11T02:31:16.083Z,90799.22
2022-12-11T02:33:55.393Z,90800.03
2022-12-11T02:36:28.214Z,90799.22
2022-12-11T02:39:01.283Z,90813.31
2022-12-11T02:41:32.134Z,90810.22
2022-12-11T02:44:05.675Z,90805.16
2022-12-11T02:46:37.209Z,90800.09
2022-12-11T02:49:10.164Z,90803.19
2022-12-11T02:51:43.640Z,90808.41
2022-12-11T02:54:20.887Z,90808.88
2022-12-11T02:56:58.762Z,90805.13
2022-12-11T02:59:38.750Z,90803.13
2022-12-11T03:02:08.791Z,90786.28
2022-12-11T03:04:39.188Z,90776.44
2022-12-11T03:07:14.029Z,90780.78
2022-12-11T03:09:46.274Z,90775.03
2022-12-11T03:12:20.769Z,90798.41
2022-12-11T03:14:52.582Z,90808.06
2022-12-11T03:17:25.843Z,90835.22
2022-12-11T03:20:07.604Z,90825.56
2022-12-11T03:22:42.586Z,90810.50
2022-12-11T03:25:17.670Z,90809.97
2022-12-11T03:27:54.949Z,90816.66
2022-12-11T03:30:27.667Z,90823.06
2022-12-11T03:33:04.791Z,90816.56
2022-12-11T03:35:38.924Z,90809.22
2022-12-11T03:38:12.328Z,90823.00
2022-12-11T03:40:45.961Z,90824.19
2022-12-11T03:43:16.671Z,90829.75
2022-12-11T03:45:50.447Z,90819.09
2022-12-11T03:48:21.154Z,90850.63
2022-12-11T03:51:59.325Z,90836.72
2022-12-11T03:54:30.054Z,90829.69
2022-12-11T03:57:02.812Z,90840.63
2022-12-11T03:59:32.329Z,90832.59
2022-12-11T04:02:01.785Z,90830.97
2022-12-11T04:04:31.270Z,90804.81
2022-12-11T04:07:02.036Z,90814.09
2022-12-11T04:09:31.364Z,90805.81
2022-12-11T04:12:00.808Z,90792.25
2022-12-11T04:14:48.692Z,90795.88
2022-12-11T04:17:38.471Z,90799.91
2022-12-11T04:20:26.630Z,90801.09
2022-12-11T04:23:14.906Z,90801.44
2022-12-11T04:25:44.285Z,90799.34
2022-12-11T04:28:13.748Z,90811.78
2022-12-11T04:30:43.171Z,90808.06
2022-12-11T04:33:12.663Z,90810.88
2022-12-11T04:35:41.970Z,90822.00
2022-12-11T04:38:12.686Z,90819.09
2022-12-11T04:40:42.342Z,90810.97
2022-12-11T04:43:11.540Z,90805.44
2022-12-11T04:45:40.929Z,90814.25
2022-12-11T04:48:10.208Z,90817.19
2022-12-11T04:50:39.626Z,90822.72
2022-12-11T04:53:08.887Z,90816.97
2022-12-11T04:55:41.790Z,90821.00
2022-12-11T04:58:11.128Z,90824.09
2022-12-11T05:00:41.626Z,90818.53
2022-12-11T05:03:11.362Z,90825.66
2022-12-11T05:05:41.289Z,90825.31
2022-12-11T05:08:10.504Z,90831.22
2022-12-11T05:10:44.523Z,90849.16
2022-12-11T05:13:17.963Z,90836.88
2022-12-11T05:15:47.428Z,90841.31
2022-12-11T05:18:16.900Z,90842.97
2022-12-11T05:20:46.229Z,90847.31
2022-12-11T05:23:15.469Z,90854.53
2022-12-11T05:25:52.596Z,90854.25
2022-12-11T05:28:22.080Z,90855.72
2022-12-11T05:30:56.012Z,90858.53
2022-12-11T05:33:25.530Z,90853.81
2022-12-11T05:35:54.954Z,90844.69
2022-12-11T05:38:24.809Z,90854.84
2022-12-11T05:41:03.823Z,90860.13
2022-12-11T05:43:37.152Z,90852.00
2022-12-11T05:46:12.685Z,90847.63
2022-12-11T05:48:43.249Z,90861.25
2022-12-11T05:51:13.468Z,90874.22
2022-12-11T05:53:44.701Z,90872.16
2022-12-11T05:56:18.060Z,90872.28
2022-12-11T05:58:48.201Z,90869.56
2022-12-11T06:01:20.998Z,90872.47
2022-12-11T06:03:50.650Z,90883.09
2022-12-11T06:06:20.155Z,90883.91
2022-12-11T06:08:52.527Z,90890.44
2022-12-11T06:11:24.583Z,90889.66
2022-12-11T06:13:54.630Z,90893.75
2022-12-11T06:16:25.357Z,90899.81
2022-12-11T06:18:58.355Z,90907.16
2022-12-11T06:21:30.120Z,90903.06
2022-12-11T06:24:02.509Z,90919.22
2022-12-11T06:26:33.826Z,90931.13
2022-12-11T06:29:05.260Z,90932.28
2022-12-11T06:31:38.493Z,90927.53
2022-12-11T06:34:07.811Z,90931.44
2022-12-11T06:36:37.169Z,90933.41
2022-12-11T06:39:06.759Z,90939.47
2022-12-11T06:41:37.808Z,90941.91
2022-12-11T06:44:07.271Z,90943.03
2022-12-11T06:46:36.525Z,90949.91
2022-12-11T06:51:57.232Z,90948.22
2022-12-11T06:54:28.388Z,90942.00
2022-12-11T06:56:57.710Z,90944.44
2022-12-11T06:59:27.069Z,90942.59
2022-12-11T07:01:56.446Z,90941.13
2022-12-11T07:04:27.643Z,90936.69
2022-12-11T07:06:58.704Z,90941.41
2022-12-11T07:09:27.989Z,90939.09
2022-12-11T07:11:57.466Z,90934.84
2022-12-11T07:14:26.937Z,90942.34
2022-12-11T07:16:56.290Z,90950.81
2022-12-11T07:19:25.921Z,90943.09
2022-12-11T07:21:56.887Z,90938.84
2022-12-11T07:24:26.422Z,90940.13
2022-12-11T07:26:55.699Z,90945.03
2022-12-11T07:29:25.111Z,90937.78
2022-12-11T07:31:54.611Z,90943.63
2022-12-11T07:34:24.029Z,90953.91
2022-12-11T07:36:53.344Z,90950.78
2022-12-11T07:39:24.216Z,90948.31
2022-12-11T07:41:53.804Z,90951.09
2022-12-11T07:44:23.504Z,90958.34
2022-12-11T07:46:52.909Z,90962.22
2022-12-11T07:49:22.270Z,90956.81
2022-12-11T07:51:51.712Z,90966.94
2022-12-11T07:54:22.469Z,90966.72
2022-12-11T07:56:53.967Z,90962.41
2022-12-11T07:59:23.501Z,90960.19
2022-12-11T08:01:53.088Z,90959.91
2022-12-11T08:04:22.467Z,90954.03
2022-12-11T08:06:51.852Z,90954.72
2022-12-11T08:09:23.509Z,90951.22
2022-12-11T08:11:53.684Z,90955.84
2022-12-11T08:14:23.287Z,90960.00
2022-12-11T08:16:52.662Z,90967.44
2022-12-11T08:19:22.206Z,90959.28
2022-12-11T08:21:51.530Z,90967.81
2022-12-11T08:24:22.370Z,90957.94
2022-12-11T08:26:51.721Z,90947.06
2022-12-11T08:29:21.053Z,90947.44
2022-12-11T08:31:50.301Z,90957.38
2022-12-11T08:34:19.601Z,90957.84
2022-12-11T08:36:48.970Z,90953.41
2022-12-11T08:39:18.266Z,90955.22
2022-12-11T08:41:48.983Z,90942.63
2022-12-11T08:44:18.243Z,90945.81
2022-12-11T08:46:48.591Z,90937.94
2022-12-11T08:49:17.986Z,90936.13
2022-12-11T08:51:47.295Z,90927.25
2022-12-11T08:54:16.669Z,90940.63
2022-12-11T08:56:47.447Z,90939.28
2022-12-11T08:59:16.848Z,90936.47
2022-12-11T09:01:46.135Z,90931.50
2022-12-11T09:04:15.728Z,90934.38
2022-12-11T09:06:45.148Z,90943.31
2022-12-11T09:09:14.948Z,90962.41
2022-12-11T09:11:44.656Z,90971.56
2022-12-11T09:14:16.286Z,90979.44
2022-12-11T09:16:47.178Z,90982.88
2022-12-11T09:19:18.045Z,90965.69
2022-12-11T09:21:47.729Z,90971.13
2022-12-11T09:24:17.404Z,90961.25
2022-12-11T09:26:47.462Z,90975.84
2022-12-11T09:29:18.380Z,90972.03
2022-12-11T09:31:49.331Z,90977.53
2022-12-11T09:34:18.653Z,90973.09
2022-12-11T09:36:47.982Z,90968.22
2022-12-11T09:39:18.948Z,90963.59
2022-12-11T09:41:57.284Z,90955.34
2022-12-11T09:44:43.721Z,90945.81
2022-12-11T09:47:33.688Z,90933.69
2022-12-11T09:52:12.735Z,90928.91
2022-12-11T09:54:49.868Z,90933.63
2022-12-11T09:57:36.089Z,90932.22
2022-12-11T10:00:22.095Z,90929.38
2022-12-11T10:03:35.829Z,90924.88
2022-12-11T10:06:17.170Z,90911.28
2022-12-11T10:09:02.507Z,90917.97
2022-12-11T10:12:00.347Z,90911.91
2022-12-11T10:14:45.684Z,90914.09
2022-12-11T10:17:21.781Z,90910.66
2022-12-11T10:19:52.296Z,90900.59
2022-12-11T10:22:27.765Z,90898.84
2022-12-11T10:25:16.572Z,90902.72
2022-12-11T10:27:46.703Z,90895.63
2022-12-11T10:30:20.812Z,90899.28
2022-12-11T10:32:56.053Z,90900.91
2022-12-11T10:35:38.849Z,90899.44
2022-12-11T10:38:16.897Z,90896.22
2022-12-11T10:40:51.595Z,90893.75
2022-12-11T10:43:21.135Z,90892.56
2022-12-11T10:45:55.837Z,90886.13
2022-12-11T10:48:25.878Z,90889.19
2022-12-11T10:51:02.371Z,90889.81
2022-12-11T10:53:33.628Z,90894.25
2022-12-11T10:56:05.023Z,90891.63
2022-12-11T10:58:36.129Z,90893.63
2022-12-11T11:01:11.995Z,90869.56
2022-12-11T11:03:57.258Z,90862.84
2022-12-11T11:06:28.413Z,90865.84
2022-12-11T11:09:00.423Z,90854.75
2022-12-11T11:11:35.219Z,90853.16
2022-12-11T11:14:15.109Z,90846.38
2022-12-11T11:16:47.168Z,90844.63
2022-12-11T11:19:28.908Z,90854.94
2022-12-11T11:22:02.522Z,90861.38
2022-12-11T11:24:36.912Z,90856.53
2022-12-11T11:27:15.943Z,90859.72
2022-12-11T11:29:51.573Z,90859.47
2022-12-11T11:32:29.473Z,90862.28
2022-12-11T11:35:24.756Z,90859.66
2022-12-11T11:38:08.031Z,90856.03
2022-12-11T11:40:43.910Z,90846.75
2022-12-11T11:43:22.853Z,90846.81
2022-12-11T11:45:59.228Z,90839.53
2022-12-11T11:48:39.201Z,90833.47
2022-12-11T11:51:17.818Z,90834.69
2022-12-11T11:53:52.633Z,90830.25
2022-12-11T11:56:25.367Z,90822.38
2022-12-11T11:59:13.017Z,90823.25
2022-12-11T12:01:43.993Z,90822.66
2022-12-11T12:04:14.906Z,90831.41
2022-12-11T12:07:15.850Z,90825.53
2022-12-11T12:09:55.703Z,90819.66
2022-12-11T12:12:37.606Z,90818.59
2022-12-11T12:15:35.171Z,90822.59
2022-12-11T12:18:14.080Z,90840.31
2022-12-11T12:20:52.550Z,90844.09
2022-12-11T12:23:46.326Z,90834.53
2022-12-11T12:26:25.752Z,90831.66
2022-12-11T12:29:08.086Z,90819.28
2022-12-11T12:32:03.600Z,90818.03
2022-12-11T12:34:54.208Z,90820.41
2022-12-11T12:37:45.921Z,90817.78
2022-12-11T12:40:28.388Z,90816.97
2022-12-11T12:43:07.722Z,90818.78
2022-12-11T12:45:45.939Z,90812.53
2022-12-11T12:48:16.691Z,90813.16
2022-12-11T12:51:58.082Z,90812.97
2022-12-11T12:54:31.561Z,90808.72
2022-12-11T12:57:04.554Z,90809.53
2022-12-11T12:59:34.291Z,90806.47
2022-12-11T13:02:06.849Z,90812.91
2022-12-11T13:04:58.461Z,90804.78
2022-12-11T13:07:32.931Z,90809.22
2022-12-11T13:10:23.266Z,90801.56
2022-12-11T13:12:52.801Z,90804.97
2022-12-11T13:15:37.665Z,90795.09
2022-12-11T13:18:33.705Z,90794.72
2022-12-11T13:21:04.668Z,90803.25
2022-12-11T13:23:40.481Z,90797.34
2022-12-11T13:26:12.079Z,90794.13
2022-12-11T13:28:52.022Z,90797.91
2022-12-11T13:31:36.539Z,90797.91
2022-12-11T13:34:17.811Z,90803.53
2022-12-11T13:36:52.464Z,90799.66
2022-12-11T13:39:27.693Z,90798.03
2022-12-11T13:42:01.762Z,90800.06
2022-12-11T13:44:38.408Z,90791.75
2022-12-11T13:47:14.999Z,90798.19
2022-12-11T13:49:48.008Z,90793.31
2022-12-11T13:52:21.308Z,90786.81
2022-12-11T13:54:55.727Z,90789.00
2022-12-11T13:57:28.644Z,90790.53
2022-12-11T14:00:00.869Z,90794.53
2022-12-11T14:02:33.870Z,90796.72
2022-12-11T14:05:06.560Z,90811.84
2022-12-11T14:07:42.132Z,90810.41
2022-12-11T14:10:21.267Z,90806.53
2022-12-11T14:12:56.914Z,90804.47
2022-12-11T14:15:27.173Z,90806.81
2022-12-11T14:17:57.584Z,90805.59
2022-12-11T14:20:30.512Z,90810.38
2022-12-11T14:23:08.038Z,90809.13
2022-12-11T14:25:38.830Z,90820.19
2022-12-11T14:28:18.309Z,90822.34
2022-12-11T14:30:52.508Z,90823.53
2022-12-11T14:33:24.950Z,90828.31
2022-12-11T14:35:54.828Z,90817.41
2022-12-11T14:38:29.317Z,90816.16
2022-12-11T14:41:07.355Z,90811.81
2022-12-11T14:43:44.366Z,90823.75
2022-12-11T14:46:19.791Z,90838.56
2022-12-11T14:49:00.445Z,90840.31
2022-12-11T14:51:36.850Z,90844.66
2022-12-11T14:54:07.008Z,90859.09
2022-12-11T14:56:37.982Z,90873.75
2022-12-11T14:59:19.523Z,90866.56
2022-12-11T15:02:00.869Z,90879.13
2022-12-11T15:04:33.039Z,90878.38
2022-12-11T15:07:02.909Z,90880.44
2022-12-11T15:09:40.969Z,90867.56
2022-12-11T15:12:16.138Z,90865.38
2022-12-11T15:14:51.778Z,90867.25
2022-12-11T15:17:22.230Z,90867.13
2022-12-11T15:19:54.610Z,90862.25
2022-12-11T15:22:26.416Z,90855.91
2022-12-11T15:24:57.024Z,90851.03
2022-12-11T15:27:35.761Z,90853.34
2022-12-11T15:30:26.898Z,90852.44
2022-12-11T15:33:22.298Z,90858.00
2022-12-11T15:36:04.309Z,90871.31
2022-12-11T15:38:39.790Z,90888.97
2022-12-11T15:41:16.302Z,90877.06
2022-12-11T15:43:47.650Z,90886.72
2022-12-11T15:46:18.196Z,90884.44
2022-12-11T15:51:57.041Z,90879.09
2022-12-11T15:54:26.349Z,90873.09
2022-12-11T15:56:55.759Z,90869.56
2022-12-11T15:59:25.494Z,90855.84
2022-12-11T16:01:54.942Z,90855.88
2022-12-11T16:04:24.328Z,90847.59
2022-12-11T16:06:55.521Z,90848.53
2022-12-11T16:09:24.905Z,90854.75
2022-12-11T16:11:54.166Z,90858.38
2022-12-11T16:14:23.459Z,90860.69
2022-12-11T16:16:52.949Z,90861.34
2022-12-11T16:19:22.337Z,90865.44
2022-12-11T16:21:51.578Z,90874.06
2022-12-11T16:24:22.910Z,90873.09
2022-12-11T16:26:52.174Z,90875.88
2022-12-11T16:29:22.459Z,90875.38
2022-12-11T16:31:51.845Z,90876.19
2022-12-11T16:34:21.189Z,90876.19
2022-12-11T16:36:50.970Z,90878.50
2022-12-11T16:39:21.888Z,90874.88
2022-12-11T16:41:51.283Z,90867.84
2022-12-11T16:44:22.329Z,90865.25
2022-12-11T16:46:52.388Z,90861.63
2022-12-11T16:49:22.898Z,90862.16
2022-12-11T16:51:52.612Z,90867.56
2022-12-11T16:54:23.457Z,90865.94
2022-12-11T16:56:52.721Z,90873.59
2022-12-11T16:59:22.049Z,90876.38
2022-12-11T17:01:51.990Z,90867.88
2022-12-11T17:04:21.409Z,90868.69
2022-12-11T17:06:50.594Z,90869.53
2022-12-11T17:09:21.483Z,90862.84
2022-12-11T17:11:50.852Z,90868.22
2022-12-11T17:14:20.442Z,90868.88
2022-12-11T17:16:49.895Z,90875.78
2022-12-11T17:19:19.871Z,90880.34
2022-12-11T17:21:51.813Z,90882.63
2022-12-11T17:24:22.949Z,90878.09
2022-12-11T17:26:52.184Z,90887.06
2022-12-11T17:29:22.786Z,90888.69
2022-12-11T17:31:52.156Z,90886.06
2022-12-11T17:34:21.605Z,90879.84
2022-12-11T17:36:51.656Z,90879.22
2022-12-11T17:39:22.543Z,90880.38
2022-12-11T17:41:51.880Z,90878.75
2022-12-11T17:44:21.170Z,90889.38
2022-12-11T17:46:50.530Z,90892.31
2022-12-11T17:49:20.031Z,90883.03
2022-12-11T17:51:49.968Z,90889.88
2022-12-11T17:54:19.360Z,90893.47
2022-12-11T17:56:50.204Z,90897.41
2022-12-11T17:59:20.882Z,90887.28
2022-12-11T18:01:50.243Z,90886.28
2022-12-11T18:04:19.662Z,90893.31
2022-12-11T18:06:48.990Z,90903.25
2022-12-11T18:09:18.269Z,90910.75
2022-12-11T18:11:49.083Z,90915.16
2022-12-11T18:14:18.823Z,90920.69
2022-12-11T18:16:48.632Z,90922.19
2022-12-11T18:19:19.727Z,90921.53
2022-12-11T18:21:49.228Z,90915.47
2022-12-11T18:24:18.711Z,90917.13
2022-12-11T18:26:49.754Z,90922.19
2022-12-11T18:29:19.068Z,90935.41
2022-12-11T18:31:48.393Z,90938.97
2022-12-11T18:34:17.748Z,90955.09
2022-12-11T18:36:47.169Z,90973.03
2022-12-11T18:39:16.480Z,90977.28
2022-12-11T18:41:58.273Z,90979.56
2022-12-11T18:44:34.591Z,90965.38
2022-12-11T18:47:04.170Z,90978.06
2022-12-11T18:51:56.847Z,90988.78
2022-12-11T18:54:26.121Z,90983.38
2022-12-11T18:56:55.585Z,90992.16
2022-12-11T18:59:24.922Z,90986.91
2022-12-11T19:01:54.416Z,91000.56
2022-12-11T19:04:23.870Z,90998.28
2022-12-11T19:06:53.290Z,91009.50
2022-12-11T19:09:24.809Z,91015.84
2022-12-11T19:11:54.209Z,91019.44
2022-12-11T19:14:24.249Z,91022.03
2022-12-11T19:16:53.634Z,91010.78
2022-12-11T19:19:24.188Z,91010.88
2022-12-11T19:21:53.488Z,91004.38
2022-12-11T19:24:26.061Z,91002.72
2022-12-11T19:26:55.449Z,90990.03
2022-12-11T19:29:27.448Z,90990.69
2022-12-11T19:31:57.748Z,90988.88
2022-12-11T19:34:27.470Z,90990.50
2022-12-11T19:36:57.249Z,90994.59
2022-12-11T19:39:28.016Z,91000.88
2022-12-11T19:41:57.629Z,91015.22
2022-12-11T19:44:26.998Z,91024.69
2022-12-11T19:46:56.312Z,91037.31
2022-12-11T19:49:25.747Z,91044.19
2022-12-11T19:51:55.808Z,91039.91
2022-12-11T19:54:27.086Z,91045.00
2022-12-11T19:56:56.653Z,91043.84
2022-12-11T19:59:26.011Z,91045.81
2022-12-11T20:01:55.573Z,91062.41
2022-12-11T20:04:24.962Z,91057.84
2022-12-11T20:06:54.348Z,91067.91
2022-12-11T20:09:24.682Z,91095.38
2022-12-11T20:11:55.541Z,91087.44
2022-12-11T20:14:27.602Z,91077.81
2022-12-11T20:17:14.960Z,91065.03
2022-12-11T20:19:44.854Z,91055.28
2022-12-11T20:22:14.200Z,91057.06
2022-12-11T20:24:43.799Z,91064.81
2022-12-11T20:27:14.826Z,91061.31
2022-12-11T20:29:44.150Z,91058.81
2022-12-11T20:32:13.983Z,91051.91
2022-12-11T20:34:43.467Z,91045.88
2022-12-11T20:37:12.845Z,91049.22
2022-12-11T20:39:42.210Z,91055.81
2022-12-11T20:42:13.707Z,91062.06
2022-12-11T20:44:48.748Z,91068.06
2022-12-11T20:47:20.889Z,91070.59
2022-12-11T20:49:51.348Z,91072.97
2022-12-11T20:52:21.500Z,91074.75
2022-12-11T20:54:51.017Z,91074.94
2022-12-11T20:57:21.851Z,91069.66
2022-12-11T20:59:51.161Z,91076.88
2022-12-11T21:02:20.563Z,91071.44
2022-12-11T21:04:49.842Z,91086.06
2022-12-11T21:07:19.830Z,91094.97
2022-12-11T21:09:49.201Z,91107.44
2022-12-11T21:12:18.538Z,91105.50
2022-12-11T21:14:49.345Z,91110.84
2022-12-11T21:17:18.596Z,91100.63
2022-12-11T21:19:47.891Z,91107.63
2022-12-11T21:22:17.256Z,91108.63
2022-12-11T21:24:46.530Z,91117.97
2022-12-11T21:27:16.137Z,91118.13
2022-12-11T21:29:45.421Z,91124.72
2022-12-11T21:32:16.233Z,91129.38
2022-12-11T21:34:45.604Z,91126.22
2022-12-11T21:37:15.048Z,91123.50
2022-12-11T21:39:44.349Z,91124.75
2022-12-11T21:42:13.647Z,91123.13
2022-12-11T21:47:33.869Z,91141.56
2022-12-11T21:51:56.670Z,91146.75
2022-12-11T21:54:26.079Z,91140.03
2022-12-11T21:56:55.594Z,91149.97
2022-12-11T21:59:25.028Z,91153.53
2022-12-11T22:01:54.530Z,91153.69
2022-12-11T22:04:23.865Z,91159.66
2022-12-11T22:06:53.622Z,91163.31
2022-12-11T22:09:24.406Z,91152.53
2022-12-11T22:11:58.191Z,91167.06
2022-12-11T22:14:31.014Z,91148.63
2022-12-11T22:17:00.475Z,91150.50
2022-12-11T22:19:32.740Z,91142.19
2022-12-11T22:22:02.511Z,91149.28
2022-12-11T22:24:33.412Z,91153.88
2022-12-11T22:27:02.641Z,91150.91
2022-12-11T22:29:32.048Z,91158.81
2022-12-11T22:32:01.531Z,91159.06
2022-12-11T22:34:30.894Z,91171.22
2022-12-11T22:37:00.174Z,91165.47
2022-12-11T22:39:29.661Z,91170.22
2022-12-11T22:42:00.650Z,91166.63
2022-12-11T22:44:30.012Z,91175.84
2022-12-11T22:46:59.307Z,91164.94
2022-12-11T22:49:28.612Z,91162.34
2022-12-11T22:51:58.696Z,91163.72
2022-12-11T22:54:27.962Z,91172.44
2022-12-11T22:56:58.664Z,91169.75
2022-12-11T22:59:27.997Z,91163.03
2022-12-11T23:01:57.630Z,91174.59
2022-12-11T23:04:27.476Z,91165.84
2022-12-11T23:06:56.783Z,91163.00
2022-12-11T23:09:26.453Z,91168.03
2022-12-11T23:11:58.630Z,91164.63
2022-12-11T23:14:29.876Z,91168.28
2022-12-11T23:16:59.324Z,91170.19
2022-12-11T23:19:28.970Z,91178.31
2022-12-11T23:21:58.342Z,91175.13
2022-12-11T23:24:27.759Z,91177.84
2022-12-11T23:26:57.088Z,91182.56
2022-12-11T23:29:27.743Z,91189.06
2022-12-11T23:31:57.021Z,91186.34
2022-12-11T23:34:26.330Z,91185.22
2022-12-11T23:36:55.609Z,91192.47
2022-12-11T23:39:24.888Z,91201.91
2022-12-11T23:41:54.362Z,91204.50
2022-12-11T23:44:23.677Z,91213.06
2022-12-11T23:46:54.548Z,91230.16
2022-12-11T23:49:23.762Z,91235.19
2022-12-11T23:51:53.088Z,91242.13
2022-12-11T23:54:22.588Z,91242.66
2022-12-11T23:56:52.028Z,91247.34
2022-12-11T23:59:21.473Z,91255.25
